Time;durP1;ratioP1;P1;durP2;ratioP2;P2;SDS_P1;SDS_P2;PMS_P1;PMS_P2;Temp;Humidity;BMP_temperature;BMP_pressure;BME280_temperature;BME280_humidity;BME280_pressure;Samples;Min_cycle;Max_cycle;Signal;HPM_P1;HPM_P2
2022/05/14 00:01:05;;;;;;;0.00;0.00;;;11.80;99.90;;;;;;4888969;29;20056;-64
2022/05/14 00:03:33;;;;;;;0.00;0.00;;;11.90;99.90;;;;;;4905200;29;20147;-64
2022/05/14 00:06:02;;;;;;;0.40;0.10;;;11.80;99.90;;;;;;4905789;29;20111;-64
2022/05/14 00:08:30;;;;;;;0.00;0.00;;;11.70;99.90;;;;;;4905659;29;20048;-64
2022/05/14 00:13:41;;;;;;;0.00;0.00;;;11.70;99.90;;;;;;4905325;29;20127;-64
2022/05/14 00:16:08;;;;;;;0.00;0.00;;;12.30;99.90;;;;;;4905942;29;20460;-64
2022/05/14 00:18:34;;;;;;;0.10;0.10;;;12.00;99.90;;;;;;4904977;29;20055;-64
2022/05/14 00:21:00;;;;;;;0.10;0.10;;;12.00;99.90;;;;;;4905326;29;20546;-64
2022/05/14 00:23:26;;;;;;;0.20;0.20;;;12.00;99.90;;;;;;4905543;29;20120;-64
2022/05/14 00:25:52;;;;;;;0.00;0.00;;;12.00;99.90;;;;;;4905712;29;20051;-64
2022/05/14 00:28:18;;;;;;;0.20;0.20;;;11.70;99.90;;;;;;4905584;29;20528;-64
2022/05/14 00:30:44;;;;;;;0.10;0.10;;;11.80;99.90;;;;;;4905872;29;20581;-64
2022/05/14 00:33:10;;;;;;;0.00;0.00;;;11.80;99.90;;;;;;4904945;29;20101;-64
2022/05/14 00:35:36;;;;;;;0.05;0.05;;;11.60;99.90;;;;;;4905251;29;20404;-64
2022/05/14 00:38:02;;;;;;;0.00;0.00;;;11.60;99.90;;;;;;4888218;29;20052;-64
2022/05/14 00:40:28;;;;;;;0.20;0.10;;;12.00;99.90;;;;;;4905120;29;20051;-63
2022/05/14 00:42:54;;;;;;;0.00;0.00;;;11.60;99.90;;;;;;4905876;29;20048;-64
2022/05/14 00:45:21;;;;;;;0.00;0.00;;;11.60;99.90;;;;;;4904510;29;20532;-64
2022/05/14 00:47:51;;;;;;;0.10;0.10;;;11.60;99.90;;;;;;4887598;29;20648;-64
2022/05/14 00:50:37;;;;;;;0.10;0.00;;;11.60;99.90;;;;;;4905506;29;20059;-64
2022/05/14 00:53:30;;;;;;;0.00;0.00;;;11.50;99.90;;;;;;4905548;29;20052;-64
2022/05/14 00:55:59;;;;;;;0.10;0.10;;;11.50;99.90;;;;;;4905756;29;20052;-64
2022/05/14 00:58:50;;;;;;;0.10;0.10;;;11.50;99.90;;;;;;4905301;29;20081;-64
2022/05/14 01:01:16;;;;;;;0.00;0.00;;;12.40;99.90;;;;;;4905245;29;20056;-64
2022/05/14 01:03:42;;;;;;;0.00;0.00;;;11.90;99.90;;;;;;4904630;29;20071;-65
2022/05/14 01:06:12;;;;;;;0.00;0.00;;;11.90;99.90;;;;;;4888335;29;20575;-64
2022/05/14 01:08:38;;;;;;;0.00;0.00;;;11.40;99.90;;;;;;4897669;29;20052;-64
2022/05/14 01:11:04;;;;;;;0.20;0.20;;;11.40;99.90;;;;;;4885982;29;20194;-64
2022/05/14 01:13:31;;;;;;;0.00;0.00;;;11.40;99.90;;;;;;4886931;29;20084;-64
2022/05/14 01:16:00;;;;;;;0.75;0.28;;;12.00;99.90;;;;;;4869729;29;20405;-64
2022/05/14 01:18:28;;;;;;;0.00;0.00;;;11.40;99.90;;;;;;4885306;29;20124;-64
2022/05/14 01:21:01;;;;;;;0.00;0.00;;;11.50;99.90;;;;;;4886461;29;20049;-64
2022/05/14 01:26:36;;;;;;;0.10;0.10;;;11.40;99.90;;;;;;4869748;29;20824;-64
2022/05/14 01:29:12;;;;;;;0.05;0.05;;;11.70;99.90;;;;;;4869232;29;20471;-64
2022/05/14 01:31:38;;;;;;;0.13;0.05;;;11.40;99.90;;;;;;4869133;29;20056;-64
2022/05/14 01:34:11;;;;;;;0.08;0.08;;;12.30;99.90;;;;;;4885891;29;20041;-64
2022/05/14 01:36:38;;;;;;;0.10;0.10;;;11.50;99.90;;;;;;4885433;29;20132;-64
2022/05/14 01:39:05;;;;;;;0.28;0.25;;;11.40;99.90;;;;;;4886523;29;20036;-64
2022/05/14 01:41:30;;;;;;;0.00;0.00;;;11.90;99.90;;;;;;4886372;29;20210;-64
2022/05/14 01:43:56;;;;;;;0.00;0.00;;;12.20;99.90;;;;;;4868689;29;20714;-64
2022/05/14 01:46:22;;;;;;;0.00;0.00;;;11.40;99.90;;;;;;4903047;29;20084;-64
2022/05/14 01:48:48;;;;;;;0.00;0.00;;;11.30;99.90;;;;;;4907768;29;20087;-65
2022/05/14 01:51:15;;;;;;;0.00;0.00;;;11.40;99.90;;;;;;4909155;29;20484;-64
2022/05/14 01:53:40;;;;;;;0.00;0.00;;;11.30;99.90;;;;;;4908240;29;20055;-64
2022/05/14 01:56:06;;;;;;;0.43;0.20;;;11.60;99.90;;;;;;4908573;29;20396;-64
2022/05/14 01:58:38;;;;;;;0.00;0.00;;;11.50;99.90;;;;;;4908637;29;20495;-64
2022/05/14 02:01:25;;;;;;;0.00;0.00;;;11.30;99.90;;;;;;4907692;29;20048;-64
2022/05/14 02:03:57;;;;;;;0.20;0.15;;;11.60;99.90;;;;;;4907204;29;20055;-64
2022/05/14 02:06:25;;;;;;;0.10;0.10;;;11.20;99.90;;;;;;4907593;29;20048;-64
2022/05/14 02:08:51;;;;;;;0.00;0.00;;;11.20;99.90;;;;;;4908194;29;20452;-64
2022/05/14 02:11:17;;;;;;;0.10;0.10;;;11.50;99.90;;;;;;4907658;29;20055;-64
2022/05/14 02:13:45;;;;;;;0.10;0.10;;;11.20;99.90;;;;;;4907926;29;20036;-65
2022/05/14 02:16:10;;;;;;;0.00;0.00;;;11.30;99.90;;;;;;4908228;29;20408;-64
2022/05/14 02:18:37;;;;;;;0.00;0.00;;;11.20;99.90;;;;;;4907313;29;20052;-64
2022/05/14 02:21:04;;;;;;;0.00;0.00;;;11.50;99.90;;;;;;4907906;29;20078;-64
2022/05/14 02:23:31;;;;;;;0.00;0.00;;;11.30;99.90;;;;;;4907652;29;20052;-64
2022/05/14 02:25:57;;;;;;;0.00;0.00;;;11.30;99.90;;;;;;4922008;29;20487;-64
2022/05/14 02:28:22;;;;;;;0.00;0.00;;;11.20;99.90;;;;;;4907594;29;20182;-63
2022/05/14 02:30:48;;;;;;;0.08;0.08;;;11.10;99.90;;;;;;4907101;29;20107;-64
2022/05/14 02:33:15;;;;;;;0.00;0.00;;;11.10;99.90;;;;;;4907029;29;20115;-64
2022/05/14 02:35:41;;;;;;;0.00;0.00;;;11.00;99.90;;;;;;4890874;29;20102;-64
2022/05/14 02:38:07;;;;;;;0.10;0.10;;;11.20;99.90;;;;;;4907465;29;20044;-64
2022/05/14 02:40:33;;;;;;;0.00;0.00;;;11.40;99.90;;;;;;4907605;29;20040;-64
2022/05/14 02:42:59;;;;;;;0.00;0.00;;;11.00;99.90;;;;;;4874743;29;20052;-64
2022/05/14 02:45:25;;;;;;;0.00;0.00;;;11.00;99.90;;;;;;4906906;29;20511;-64
2022/05/14 02:47:50;;;;;;;0.00;0.00;;;11.10;99.90;;;;;;4898047;29;20056;-64
2022/05/14 02:50:17;;;;;;;0.00;0.00;;;11.00;99.90;;;;;;4907093;29;20052;-64
2022/05/14 02:52:43;;;;;;;0.00;0.00;;;10.90;99.90;;;;;;4907721;29;20048;-64
2022/05/14 02:55:09;;;;;;;0.00;0.00;;;10.90;99.90;;;;;;4907016;29;20051;-64
2022/05/14 02:57:35;;;;;;;0.00;0.00;;;11.10;99.90;;;;;;4906347;29;20414;-64
2022/05/14 03:00:02;;;;;;;0.80;0.35;;;11.00;99.90;;;;;;4907068;29;20062;-64
2022/05/14 03:02:28;;;;;;;0.00;0.00;;;10.90;99.90;;;;;;4906378;29;20392;-64
2022/05/14 03:04:54;;;;;;;0.10;0.10;;;10.90;99.90;;;;;;4889635;29;20060;-64
2022/05/14 03:07:19;;;;;;;0.00;0.00;;;10.90;99.90;;;;;;4905650;29;20048;-64
2022/05/14 03:09:45;;;;;;;0.00;0.00;;;10.90;99.90;;;;;;4890267;29;20052;-64
2022/05/14 03:12:13;;;;;;;1.20;0.20;;;10.80;99.90;;;;;;4906882;29;20127;-64
2022/05/14 03:14:39;;;;;;;0.00;0.00;;;10.80;99.90;;;;;;4907063;29;20059;-64
2022/05/14 03:17:06;;;;;;;0.00;0.00;;;10.70;99.90;;;;;;4906088;29;20096;-64
2022/05/14 03:19:32;;;;;;;1.05;0.17;;;10.80;99.90;;;;;;4906712;29;20131;-64
2022/05/14 03:21:57;;;;;;;0.00;0.00;;;11.40;99.90;;;;;;4889458;29;20176;-64
2022/05/14 03:24:23;;;;;;;0.00;0.00;;;10.80;99.90;;;;;;4906598;29;20370;-64
2022/05/14 03:26:49;;;;;;;1.95;0.68;;;10.60;99.90;;;;;;4889724;29;20063;-64
2022/05/14 03:29:15;;;;;;;0.20;0.20;;;11.30;99.90;;;;;;4906646;29;20563;-64
2022/05/14 03:31:41;;;;;;;0.00;0.00;;;10.60;99.90;;;;;;4906368;29;20611;-64
2022/05/14 03:34:07;;;;;;;0.00;0.00;;;10.60;99.90;;;;;;4906754;29;20051;-64
2022/05/14 03:36:33;;;;;;;0.15;0.15;;;10.60;99.90;;;;;;4905787;29;20543;-64
2022/05/14 03:38:59;;;;;;;0.00;0.00;;;10.60;99.90;;;;;;4906150;29;20042;-64
2022/05/14 03:41:25;;;;;;;0.00;0.00;;;10.70;99.90;;;;;;4906022;29;20131;-64
2022/05/14 03:43:51;;;;;;;0.00;0.00;;;11.50;99.90;;;;;;4906453;29;20040;-64
2022/05/14 03:46:17;;;;;;;0.20;0.20;;;10.60;99.90;;;;;;4905018;29;20752;-64
2022/05/14 03:48:44;;;;;;;0.00;0.00;;;10.70;99.90;;;;;;4906598;29;20052;-65
2022/05/14 03:51:10;;;;;;;0.00;0.00;;;10.60;99.90;;;;;;4906307;29;20131;-64
2022/05/14 03:53:36;;;;;;;0.00;0.00;;;10.80;99.90;;;;;;4905524;29;20131;-64
2022/05/14 03:56:03;;;;;;;0.00;0.00;;;10.70;99.90;;;;;;4906411;29;20115;-64
2022/05/14 03:58:30;;;;;;;0.10;0.10;;;10.60;99.90;;;;;;4906200;29;20138;-64
2022/05/14 04:00:56;;;;;;;0.00;0.00;;;10.60;99.90;;;;;;4906285;29;20889;-64
2022/05/14 04:03:22;;;;;;;0.00;0.00;;;10.70;99.90;;;;;;4904570;29;20072;-64
2022/05/14 04:05:47;;;;;;;0.00;0.00;;;11.00;99.90;;;;;;4906328;29;20062;-64
2022/05/14 04:08:13;;;;;;;0.00;0.00;;;10.60;99.90;;;;;;4906279;29;20055;-64
2022/05/14 04:10:39;;;;;;;0.00;0.00;;;11.60;99.90;;;;;;4905154;29;20095;-64
2022/05/14 04:13:04;;;;;;;0.00;0.00;;;10.60;99.90;;;;;;4889132;29;20431;-64
2022/05/14 04:15:30;;;;;;;0.00;0.00;;;10.60;99.90;;;;;;4905774;29;20095;-64
2022/05/14 04:17:56;;;;;;;0.00;0.00;;;11.20;99.90;;;;;;4888161;29;20051;-64
2022/05/14 04:20:23;;;;;;;0.00;0.00;;;10.80;99.90;;;;;;4905309;29;20076;-64
2022/05/14 04:22:50;;;;;;;0.00;0.00;;;10.70;99.90;;;;;;4906217;29;20043;-64
2022/05/14 04:25:16;;;;;;;0.20;0.20;;;10.70;99.90;;;;;;4905549;29;20083;-65
2022/05/14 04:27:44;;;;;;;0.00;0.00;;;10.70;99.90;;;;;;4905490;29;20059;-65
2022/05/14 04:30:11;;;;;;;0.22;0.20;;;11.10;99.90;;;;;;4888807;29;20056;-64
2022/05/14 04:32:37;;;;;;;0.00;0.00;;;10.70;99.90;;;;;;4905252;29;20059;-64
2022/05/14 04:35:04;;;;;;;0.10;0.00;;;10.80;99.90;;;;;;4905513;29;20853;-63
2022/05/14 04:37:29;;;;;;;0.00;0.00;;;10.80;99.90;;;;;;4905091;29;20066;-64
2022/05/14 04:39:55;;;;;;;0.00;0.00;;;10.80;99.90;;;;;;4905592;29;20152;-64
2022/05/14 04:42:21;;;;;;;0.32;0.30;;;10.90;99.90;;;;;;4905338;29;20043;-64
2022/05/14 04:44:46;;;;;;;0.00;0.00;;;11.00;99.90;;;;;;4904622;29;20083;-65
2022/05/14 04:47:12;;;;;;;0.10;0.10;;;11.00;99.90;;;;;;4905084;29;20043;-64
2022/05/14 04:49:43;;;;;;;0.63;0.57;;;11.30;99.90;;;;;;4905216;29;20048;-64
2022/05/14 04:52:10;;;;;;;0.00;0.00;;;11.70;99.90;;;;;;4905129;29;20050;-64
2022/05/14 04:54:36;;;;;;;0.10;0.10;;;11.60;99.90;;;;;;4888445;29;20056;-64
2022/05/14 04:57:03;;;;;;;0.10;0.10;;;11.70;99.90;;;;;;4905560;29;20449;-64
2022/05/14 04:59:29;;;;;;;0.05;0.05;;;11.80;99.90;;;;;;4905822;29;20411;-64
2022/05/14 05:04:40;;;;;;;0.00;0.00;;;12.00;99.90;;;;;;4905799;29;20071;-64
2022/05/14 05:07:06;;;;;;;0.00;0.00;;;12.10;99.90;;;;;;4905157;29;20098;-64
2022/05/14 05:09:32;;;;;;;0.05;0.05;;;12.30;99.90;;;;;;4905324;29;20471;-64
2022/05/14 05:11:58;;;;;;;0.10;0.10;;;12.50;99.90;;;;;;4905277;29;20050;-64
2022/05/14 05:14:24;;;;;;;0.00;0.00;;;13.10;99.90;;;;;;4905396;29;20052;-64
2022/05/14 05:16:50;;;;;;;0.00;0.00;;;12.90;99.90;;;;;;4904108;29;20040;-64
2022/05/14 05:19:17;;;;;;;0.00;0.00;;;13.00;99.90;;;;;;4905415;29;20052;-65
2022/05/14 05:21:43;;;;;;;0.00;0.00;;;13.40;99.90;;;;;;4908859;29;20048;-65
2022/05/14 05:24:09;;;;;;;0.00;0.00;;;13.40;99.90;;;;;;4908464;29;20107;-64
2022/05/14 05:26:35;;;;;;;0.00;0.00;;;13.40;99.90;;;;;;4908628;29;20048;-64
2022/05/14 05:29:01;;;;;;;0.00;0.00;;;13.30;99.90;;;;;;4908756;29;20131;-64
2022/05/14 05:31:27;;;;;;;0.00;0.00;;;13.40;99.90;;;;;;4890721;29;20467;-64
2022/05/14 05:33:53;;;;;;;0.10;0.10;;;13.00;99.90;;;;;;4891107;29;20204;-64
2022/05/14 05:36:18;;;;;;;0.00;0.00;;;13.10;99.90;;;;;;4908712;29;20532;-64
2022/05/14 05:38:44;;;;;;;0.10;0.10;;;12.80;99.90;;;;;;4892339;29;20052;-64
2022/05/14 05:41:09;;;;;;;0.10;0.05;;;12.80;99.90;;;;;;4908076;29;20044;-64
2022/05/14 05:43:38;;;;;;;0.00;0.00;;;12.80;99.90;;;;;;4908229;29;20057;-64
2022/05/14 05:46:04;;;;;;;0.00;0.00;;;13.00;99.90;;;;;;4907118;29;20048;-63
2022/05/14 05:48:29;;;;;;;0.00;0.00;;;12.90;99.90;;;;;;4909640;29;20416;-63
2022/05/14 05:50:55;;;;;;;0.00;0.00;;;12.90;99.90;;;;;;4908612;29;20161;-64
2022/05/14 05:56:46;;;;;;;0.00;0.00;;;12.80;99.90;;;;;;4908015;29;20052;-64
2022/05/14 05:58:50;;;;;;;0.00;0.00;;;13.60;99.90;;;;;;4908011;29;20055;-64
2022/05/14 06:01:16;;;;;;;0.00;0.00;;;13.80;99.90;;;;;;4907293;29;20048;-65
2022/05/14 06:03:42;;;;;;;0.00;0.00;;;14.30;99.90;;;;;;4908600;29;20052;-65
2022/05/14 06:06:08;;;;;;;0.00;0.00;;;14.90;99.90;;;;;;4908293;29;20048;-64
2022/05/14 06:08:34;;;;;;;0.00;0.00;;;14.70;99.90;;;;;;4907891;29;20048;-64
2022/05/14 06:11:00;;;;;;;0.00;0.00;;;14.50;99.90;;;;;;4907260;29;20107;-64
2022/05/14 06:13:25;;;;;;;0.00;0.00;;;14.40;99.90;;;;;;4907532;29;20127;-64
2022/05/14 06:15:52;;;;;;;0.00;0.00;;;14.20;99.90;;;;;;4891234;29;20199;-64
2022/05/14 06:18:19;;;;;;;0.00;0.00;;;14.10;99.90;;;;;;4907205;29;20063;-64
2022/05/14 06:20:45;;;;;;;0.00;0.00;;;14.00;99.90;;;;;;4908410;29;20773;-63
2022/05/14 06:23:10;;;;;;;0.00;0.00;;;14.10;99.90;;;;;;4907964;29;20060;-63
2022/05/14 06:25:37;;;;;;;0.00;0.00;;;14.20;99.90;;;;;;4908031;29;20059;-63
2022/05/14 06:28:03;;;;;;;0.00;0.00;;;14.20;99.90;;;;;;4906962;29;20431;-64
2022/05/14 06:30:30;;;;;;;0.10;0.10;;;14.20;99.90;;;;;;4907606;29;20048;-64
2022/05/14 06:33:05;;;;;;;0.70;0.70;;;14.10;99.90;;;;;;4905855;29;20040;-63
2022/05/14 06:35:32;;;;;;;0.03;0.03;;;14.10;99.90;;;;;;4907163;29;20138;-62
2022/05/14 06:37:59;;;;;;;0.00;0.00;;;14.50;99.90;;;;;;4907389;29;20119;-63
2022/05/14 06:40:24;;;;;;;0.00;0.00;;;14.80;99.90;;;;;;4907316;29;20052;-63
2022/05/14 06:42:50;;;;;;;0.00;0.00;;;14.40;99.90;;;;;;4906882;29;20393;-63
2022/05/14 06:45:16;;;;;;;0.10;0.10;;;14.50;99.90;;;;;;4889733;29;20190;-64
2022/05/14 06:47:42;;;;;;;0.00;0.00;;;15.20;99.90;;;;;;4907070;29;20151;-65
2022/05/14 06:50:08;;;;;;;0.00;0.00;;;14.70;99.90;;;;;;4907555;29;20048;-63
2022/05/14 06:52:34;;;;;;;0.00;0.00;;;15.20;99.90;;;;;;4906337;29;20047;-63
2022/05/14 06:55:01;;;;;;;0.00;0.00;;;15.50;99.90;;;;;;4890081;29;20040;-64
2022/05/14 06:57:28;;;;;;;0.00;0.00;;;16.30;99.90;;;;;;4905848;29;20044;-64
2022/05/14 06:59:54;;;;;;;0.00;0.00;;;16.30;99.90;;;;;;4907013;29;20044;-63
2022/05/14 07:02:20;;;;;;;0.00;0.00;;;16.70;99.90;;;;;;4906294;29;20292;-64
2022/05/14 07:07:31;;;;;;;0.00;0.00;;;17.50;99.90;;;;;;4889437;29;20048;-64
2022/05/14 07:09:56;;;;;;;0.00;0.00;;;17.30;99.90;;;;;;4906751;29;20059;-64
2022/05/14 07:12:22;;;;;;;0.00;0.00;;;17.70;99.90;;;;;;4906813;29;20148;-63
2022/05/14 07:14:48;;;;;;;0.00;0.00;;;17.30;99.90;;;;;;4889371;29;20259;-64
2022/05/14 07:17:13;;;;;;;0.00;0.00;;;17.50;99.90;;;;;;4906489;29;20083;-63
2022/05/14 07:19:40;;;;;;;0.00;0.00;;;17.50;99.90;;;;;;4889965;29;20035;-64
2022/05/14 07:22:06;;;;;;;0.00;0.00;;;17.70;99.90;;;;;;4906416;29;20228;-63
2022/05/14 07:24:32;;;;;;;0.08;0.08;;;17.90;99.90;;;;;;4906181;29;20055;-63
2022/05/14 07:27:01;;;;;;;0.00;0.00;;;17.40;99.90;;;;;;4906709;29;20040;-63
2022/05/14 07:29:29;;;;;;;0.00;0.00;;;17.80;99.90;;;;;;4906440;29;20051;-63
2022/05/14 07:31:55;;;;;;;0.00;0.00;;;18.10;99.90;;;;;;4905385;29;20123;-63
2022/05/14 07:34:21;;;;;;;0.00;0.00;;;18.40;99.90;;;;;;4906124;29;20053;-64
2022/05/14 07:36:57;;;;;;;0.15;0.15;;;18.40;99.90;;;;;;4906295;29;20051;-67
2022/05/14 07:39:29;;;;;;;0.00;0.00;;;18.20;99.90;;;;;;4905769;29;20244;-69
2022/05/14 07:41:57;;;;;;;0.00;0.00;;;18.20;99.90;;;;;;4906251;29;20467;-69
2022/05/14 07:44:35;;;;;;;0.00;0.00;;;18.30;99.90;;;;;;4905372;29;20123;-69
2022/05/14 07:47:01;;;;;;;0.00;0.00;;;18.10;99.90;;;;;;4888085;29;20096;-68
2022/05/14 07:49:27;;;;;;;0.00;0.00;;;18.30;99.90;;;;;;4905913;29;20586;-69
2022/05/14 07:51:54;;;;;;;0.00;0.00;;;18.50;99.90;;;;;;4905443;29;20161;-69
2022/05/14 07:54:21;;;;;;;0.05;0.00;;;18.50;99.90;;;;;;4905907;29;20408;-69
2022/05/14 07:56:47;;;;;;;0.00;0.00;;;18.40;99.90;;;;;;4905764;29;20484;-69
2022/05/14 07:59:13;;;;;;;0.28;0.15;;;18.70;99.90;;;;;;4889226;29;20051;-69
2022/05/14 08:01:40;;;;;;;0.85;0.10;;;18.30;99.90;;;;;;4904094;29;20052;-68
2022/05/14 08:04:07;;;;;;;0.38;0.30;;;18.80;99.90;;;;;;4905046;29;20070;-68
2022/05/14 08:06:33;;;;;;;0.00;0.00;;;18.70;99.90;;;;;;4905414;29;20052;-69
2022/05/14 08:08:59;;;;;;;0.00;0.00;;;18.30;99.90;;;;;;4887864;29;20401;-66
2022/05/14 08:11:26;;;;;;;0.00;0.00;;;18.60;99.90;;;;;;4888352;29;20103;-63
2022/05/14 08:13:53;;;;;;;0.00;0.00;;;18.90;99.90;;;;;;4905352;29;20091;-69
2022/05/14 08:16:20;;;;;;;0.00;0.00;;;18.90;99.90;;;;;;4904247;29;20052;-71
2022/05/14 08:18:46;;;;;;;0.00;0.00;;;19.10;99.90;;;;;;4904928;29;20059;-71
2022/05/14 08:26:40;;;;;;;0.00;0.00;;;18.70;99.90;;;;;;4905084;29;20087;-71
2022/05/14 08:29:06;;;;;;;0.00;0.00;;;18.40;99.90;;;;;;4904344;29;20143;-70
2022/05/14 08:31:32;;;;;;;0.03;0.03;;;18.50;99.90;;;;;;4904265;29;20143;-71
2022/05/14 08:33:57;;;;;;;0.00;0.00;;;18.30;99.90;;;;;;4905137;29;20044;-71
2022/05/14 08:36:23;;;;;;;0.00;0.00;;;18.20;99.90;;;;;;4888015;29;20157;-71
2022/05/14 08:38:48;;;;;;;0.00;0.00;;;18.10;99.90;;;;;;4887787;29;20063;-71
2022/05/14 08:41:15;;;;;;;0.00;0.00;;;18.10;99.90;;;;;;4905147;29;20066;-71
2022/05/14 08:43:50;;;;;;;0.00;0.00;;;18.30;99.90;;;;;;4888515;29;20055;-71
2022/05/14 08:46:17;;;;;;;;;;;18.70;99.90;;;;;;4903583;29;20130;-70
2022/05/14 08:48:49;;;;;;;0.00;0.00;;;19.00;99.90;;;;;;4905143;29;19933;-70
2022/05/14 08:51:18;;;;;;;0.00;0.00;;;19.00;99.90;;;;;;4905498;29;20119;-70
2022/05/14 08:53:47;;;;;;;0.10;0.10;;;18.90;99.90;;;;;;4904462;29;20043;-70
2022/05/14 08:56:26;;;;;;;0.00;0.00;;;18.40;99.90;;;;;;4890558;29;20447;-71
2022/05/14 08:59:10;;;;;;;0.00;0.00;;;18.50;99.90;;;;;;4891562;29;20059;-71
2022/05/14 09:01:41;;;;;;;0.00;0.00;;;18.00;99.90;;;;;;4909056;29;20487;-71
2022/05/14 09:04:09;;;;;;;0.00;0.00;;;18.00;99.90;;;;;;4891988;29;20051;-71
2022/05/14 09:06:36;;;;;;;0.00;0.00;;;17.90;99.90;;;;;;4908319;29;20051;-70
2022/05/14 09:09:03;;;;;;;0.10;0.10;;;18.60;99.90;;;;;;4908659;29;20067;-70
2022/05/14 09:11:45;;;;;;;0.00;0.00;;;18.90;99.90;;;;;;4890940;29;20043;-71
2022/05/14 09:14:33;;;;;;;0.35;0.10;;;19.20;99.90;;;;;;4891926;29;20613;-70
2022/05/14 09:17:14;;;;;;;0.00;0.00;;;19.30;99.90;;;;;;4889948;29;20056;-70
2022/05/14 09:19:43;;;;;;;0.00;0.00;;;19.80;99.90;;;;;;4908589;29;20071;-71
2022/05/14 09:22:22;;;;;;;0.17;0.17;;;19.30;99.90;;;;;;4891434;29;20055;-71
2022/05/14 09:25:28;;;;;;;0.15;0.15;;;19.00;99.90;;;;;;4891220;29;20044;-71
2022/05/14 09:28:00;;;;;;;0.00;0.00;;;19.20;99.90;;;;;;4879597;29;20048;-71
2022/05/14 09:30:36;;;;;;;0.00;0.00;;;18.90;99.90;;;;;;4890375;29;20099;-71
2022/05/14 09:33:09;;;;;;;0.00;0.00;;;19.50;99.90;;;;;;4907312;29;20040;-71
2022/05/14 09:35:36;;;;;;;0.00;0.00;;;19.50;99.90;;;;;;4891074;29;20044;-71
2022/05/14 09:38:18;;;;;;;0.00;0.00;;;19.90;99.90;;;;;;4908190;29;20667;-71
2022/05/14 09:40:44;;;;;;;0.45;0.30;;;19.40;99.90;;;;;;4908508;29;20055;-71
2022/05/14 09:43:16;;;;;;;0.00;0.00;;;18.90;99.90;;;;;;4907979;29;20047;-71
2022/05/14 09:45:55;;;;;;;0.47;0.47;;;19.20;99.90;;;;;;4906441;29;20134;-71
2022/05/14 09:48:23;;;;;;;0.63;0.63;;;19.50;99.90;;;;;;4910561;29;20131;-71
2022/05/14 09:50:57;;;;;;;0.00;0.00;;;19.80;99.90;;;;;;4907959;29;20403;-70
2022/05/14 09:53:27;;;;;;;;;;;19.70;99.90;;;;;;4907954;29;20044;-70
2022/05/14 09:56:24;;;;;;;0.00;0.00;;;19.90;99.90;;;;;;4907922;29;20331;-71
2022/05/14 09:59:28;;;;;;;0.00;0.00;;;19.50;99.90;;;;;;4880259;29;20055;-70
2022/05/14 10:02:06;;;;;;;0.00;0.00;;;20.00;99.90;;;;;;4907018;29;20460;-71
2022/05/14 10:04:52;;;;;;;0.00;0.00;;;20.00;99.90;;;;;;4889963;29;20071;-71
2022/05/14 10:07:46;;;;;;;0.00;0.00;;;19.90;99.90;;;;;;4890185;29;20048;-71
2022/05/14 10:10:42;;;;;;;0.00;0.00;;;19.80;99.90;;;;;;4890067;29;20131;-71
2022/05/14 10:13:17;;;;;;;0.00;0.00;;;19.60;99.90;;;;;;4890794;29;20074;-71
2022/05/14 10:15:59;;;;;;;0.00;0.00;;;20.30;99.90;;;;;;4906966;29;20064;-70
2022/05/14 10:18:46;;;;;;;0.00;0.00;;;20.70;99.90;;;;;;4890269;29;20056;-71
2022/05/14 10:21:29;;;;;;;0.00;0.00;;;21.40;99.90;;;;;;4908061;29;20056;-71
2022/05/14 10:27:31;;;;;;;0.00;0.00;;;21.50;99.90;;;;;;4889668;29;20107;-71
2022/05/14 10:30:48;;;;;;;0.00;0.00;;;21.00;99.90;;;;;;4907081;29;20143;-71
2022/05/14 10:33:20;;;;;;;0.10;0.10;;;21.40;99.90;;;;;;4830355;29;20042;-71
2022/05/14 10:36:15;;;;;;;0.00;0.00;;;21.80;99.90;;;;;;4814176;29;20724;-71
2022/05/14 10:38:45;;;;;;;0.00;0.00;;;21.50;99.90;;;;;;4874403;29;20071;-71
2022/05/14 10:41:14;;;;;;;0.15;0.10;;;20.80;99.90;;;;;;4890104;29;20048;-71
2022/05/14 10:44:02;;;;;;;0.00;0.00;;;20.10;99.90;;;;;;4890102;29;20225;-71
2022/05/14 10:46:32;;;;;;;0.00;0.00;;;19.80;99.90;;;;;;4905258;29;20076;-71
2022/05/14 10:49:06;;;;;;;0.00;0.00;;;20.20;99.90;;;;;;4887808;29;20052;-71
2022/05/14 10:51:37;;;;;;;0.00;0.00;;;20.60;99.90;;;;;;4887457;29;20086;-71
2022/05/14 10:54:03;;;;;;;0.00;0.00;;;21.60;99.90;;;;;;4888024;29;20493;-71
2022/05/14 10:56:33;;;;;;;0.00;0.00;;;20.90;99.90;;;;;;4887744;29;20368;-71
2022/05/14 10:59:08;;;;;;;0.00;0.00;;;20.90;99.90;;;;;;4870393;29;20064;-71
2022/05/14 11:02:00;;;;;;;0.00;0.00;;;21.50;99.90;;;;;;4886651;29;20090;-71
2022/05/14 11:04:28;;;;;;;0.00;0.00;;;21.60;99.90;;;;;;4869994;29;20056;-71
2022/05/14 11:07:02;;;;;;;0.00;0.00;;;21.60;99.90;;;;;;4870712;29;20533;-71
2022/05/14 11:09:30;;;;;;;0.00;0.00;;;21.80;99.90;;;;;;4886881;29;20056;-71
2022/05/14 11:12:00;;;;;;;0.00;0.00;;;21.90;99.90;;;;;;4871345;29;20045;-72
2022/05/14 11:14:39;;;;;;;0.00;0.00;;;22.50;99.90;;;;;;4888198;29;20080;-71
2022/05/14 11:17:16;;;;;;;0.00;0.00;;;22.90;99.90;;;;;;4885971;29;20420;-71
2022/05/14 11:19:42;;;;;;;0.05;0.05;;;22.90;99.90;;;;;;4870004;29;20045;-70
2022/05/14 11:22:23;;;;;;;0.00;0.00;;;22.40;99.90;;;;;;4870457;29;20735;-71
2022/05/14 11:24:50;;;;;;;0.00;0.00;;;22.20;99.90;;;;;;4886991;29;20127;-71
2022/05/14 11:27:31;;;;;;;0.20;0.10;;;22.40;99.90;;;;;;4887157;29;20063;-71
2022/05/14 11:30:02;;;;;;;0.00;0.00;;;22.60;99.90;;;;;;4887158;29;20062;-71
2022/05/14 11:32:47;;;;;;;0.00;0.00;;;21.70;99.90;;;;;;4869759;29;20045;-72
2022/05/14 11:35:14;;;;;;;0.00;0.00;;;21.60;99.90;;;;;;4887356;29;20796;-71
2022/05/14 11:37:48;;;;;;;0.20;0.20;;;21.10;99.90;;;;;;4886778;29;20171;-71
2022/05/14 11:40:19;;;;;;;0.00;0.00;;;21.30;99.90;;;;;;4855014;29;20116;-71
2022/05/14 11:42:49;;;;;;;0.10;0.10;;;21.70;99.90;;;;;;4870283;29;20060;-71
2022/05/14 11:45:28;;;;;;;0.65;0.25;;;21.80;99.90;;;;;;4876096;29;20052;-71
2022/05/14 11:47:58;;;;;;;0.00;0.00;;;21.80;99.90;;;;;;4897261;29;20044;-71
2022/05/14 11:50:33;;;;;;;0.00;0.00;;;21.50;99.90;;;;;;4919799;29;20060;-71
2022/05/14 11:53:11;;;;;;;0.00;0.00;;;21.00;99.90;;;;;;4905614;29;20143;-71
2022/05/14 11:55:52;;;;;;;2.92;0.10;;;20.90;99.90;;;;;;4905524;29;20392;-71
2022/05/14 11:58:27;;;;;;;0.00;0.00;;;20.40;99.90;;;;;;4905338;29;20047;-71
2022/05/14 12:00:54;;;;;;;0.00;0.00;;;20.60;99.90;;;;;;4887586;29;20127;-71
2022/05/14 12:03:32;;;;;;;0.00;0.00;;;20.80;99.90;;;;;;4905185;29;20054;-71
2022/05/14 12:06:17;;;;;;;0.10;0.10;;;20.80;99.90;;;;;;4887872;29;20194;-71
2022/05/14 12:09:08;;;;;;;0.00;0.00;;;20.80;99.90;;;;;;4920096;29;20356;-73
2022/05/14 12:11:36;;;;;;;0.00;0.00;;;20.80;99.90;;;;;;4905492;29;20110;-73
2022/05/14 12:14:30;;;;;;;0.00;0.00;;;20.90;99.90;;;;;;4905400;29;20804;-73
2022/05/14 12:17:01;;;;;;;0.00;0.00;;;21.10;99.90;;;;;;4880676;29;20470;-71
2022/05/14 12:19:37;;;;;;;0.00;0.00;;;21.00;99.90;;;;;;4904983;29;20048;-73
2022/05/14 12:22:14;;;;;;;0.00;0.00;;;21.40;99.90;;;;;;4888246;29;21050;-72
2022/05/14 12:24:40;;;;;;;0.00;0.00;;;21.80;99.90;;;;;;4904805;29;20047;-71
2022/05/14 12:27:18;;;;;;;0.00;0.00;;;22.00;99.90;;;;;;4904543;29;20143;-67
2022/05/14 12:29:54;;;;;;;0.00;0.00;;;21.90;99.90;;;;;;4905220;29;20044;-66
2022/05/14 12:35:24;;;;;;;0.00;0.00;;;21.50;99.90;;;;;;4905268;29;20052;-65
2022/05/14 12:37:55;;;;;;;0.00;0.00;;;21.50;99.90;;;;;;4904721;29;20046;-66
2022/05/14 12:40:27;;;;;;;0.00;0.00;;;21.50;99.90;;;;;;4887875;29;20102;-65
2022/05/14 12:42:53;;;;;;;0.03;0.00;;;21.30;99.90;;;;;;4888295;29;20602;-66
2022/05/14 12:45:19;;;;;;;0.05;0.05;;;21.30;99.90;;;;;;4903279;29;20052;-66
2022/05/14 12:47:46;;;;;;;0.00;0.00;;;21.00;99.90;;;;;;4905514;29;20451;-66
2022/05/14 12:50:19;;;;;;;0.00;0.00;;;20.90;99.90;;;;;;4905549;29;20047;-66
2022/05/14 12:53:06;;;;;;;0.00;0.00;;;20.70;99.90;;;;;;4905112;29;20095;-65
2022/05/14 12:55:37;;;;;;;0.00;0.00;;;20.80;99.90;;;;;;4904984;29;20137;-65
2022/05/14 12:58:04;;;;;;;0.00;0.00;;;20.80;99.90;;;;;;4904796;29;20389;-65
2022/05/14 13:00:32;;;;;;;0.00;0.00;;;20.80;99.90;;;;;;4904374;29;20495;-65
2022/05/14 13:03:15;;;;;;;0.00;0.00;;;21.00;99.90;;;;;;4904892;29;20048;-66
2022/05/14 13:05:49;;;;;;;0.00;0.00;;;20.90;99.90;;;;;;4901847;29;20036;-65
2022/05/14 13:08:19;;;;;;;0.00;0.00;;;21.10;99.90;;;;;;4900872;29;20052;-65
2022/05/14 13:11:10;;;;;;;0.00;0.00;;;21.10;99.90;;;;;;4901072;29;20052;-65
2022/05/14 13:13:39;;;;;;;0.00;0.00;;;21.30;99.90;;;;;;4875815;29;20087;-65
2022/05/14 13:16:24;;;;;;;0.00;0.00;;;20.90;99.90;;;;;;4900285;29;20349;-65
2022/05/14 13:18:53;;;;;;;0.00;0.00;;;21.00;99.90;;;;;;4900782;29;20052;-65
2022/05/14 13:21:32;;;;;;;0.00;0.00;;;21.20;99.90;;;;;;4900687;29;20052;-65
2022/05/14 13:24:03;;;;;;;0.00;0.00;;;21.10;99.90;;;;;;4901201;29;20047;-65
2022/05/14 13:26:34;;;;;;;0.10;0.10;;;21.20;99.90;;;;;;4900677;29;20051;-65
2022/05/14 13:29:10;;;;;;;0.08;0.08;;;21.20;99.90;;;;;;4900386;29;20044;-66